Time;durP1;ratioP1;P1;durP2;ratioP2;P2;SDS_P1;SDS_P2;PMS_P1;PMS_P2;Temp;Humidity;BMP_temperature;BMP_pressure;BME280_temperature;BME280_humidity;BME280_pressure;Samples;Min_cycle;Max_cycle;Signal;HPM_P1;HPM_P2
2022/12/25 00:01:41;;;;;;;;;14.33;14.33;;;;;12.00;88.56;100765.53;5016203;28;45245;-59
2022/12/25 00:04:06;;;;;;;;;13.67;13.67;;;;;12.19;88.13;100789.28;5014953;28;46120;-58
2022/12/25 00:06:32;;;;;;;;;15.67;13.00;;;;;12.21;88.54;100795.38;5015628;28;45404;-58
2022/12/25 00:08:57;;;;;;;;;18.00;14.00;;;;;12.14;88.28;100786.91;5015779;28;45427;-57
2022/12/25 00:11:23;;;;;;;;;16.00;15.00;;;;;12.17;88.54;100794.72;5015908;28;45526;-58
2022/12/25 00:13:48;;;;;;;;;15.33;15.33;;;;;12.20;88.31;100785.66;5018622;28;46067;-58
2022/12/25 00:16:20;;;;;;;;;13.00;13.00;;;;;12.22;87.96;100779.28;5019106;28;45304;-57
2022/12/25 00:18:46;;;;;;;;;18.33;13.67;;;;;12.21;88.02;100777.56;5001333;28;45435;-57
2022/12/25 00:21:15;;;;;;;;;15.67;15.00;;;;;12.19;87.90;100784.81;5019119;28;45579;-57
2022/12/25 00:23:40;;;;;;;;;18.67;14.33;;;;;12.17;88.19;100784.03;5018941;28;45265;-57
2022/12/25 00:26:11;;;;;;;;;16.00;13.33;;;;;12.09;88.46;100772.97;5017936;28;45418;-59
2022/12/25 00:28:37;;;;;;;;;16.00;11.67;;;;;12.18;88.31;100779.56;5018879;28;45350;-57
2022/12/25 00:31:08;;;;;;;;;15.33;14.33;;;;;12.19;88.03;100774.16;5018962;28;45559;-57
2022/12/25 00:33:38;;;;;;;;;16.00;13.00;;;;;12.12;88.12;100759.47;5000367;28;46184;-58
2022/12/25 00:36:05;;;;;;;;;18.00;14.33;;;;;12.24;88.66;100774.75;5018500;28;45363;-57
2022/12/25 00:38:31;;;;;;;;;14.33;14.33;;;;;12.18;87.90;100759.09;5018584;28;45274;-58
2022/12/25 00:40:56;;;;;;;;;14.00;14.00;;;;;12.23;87.90;100772.16;5018939;28;45713;-58
2022/12/25 00:43:22;;;;;;;;;14.33;11.33;;;;;12.23;88.13;100773.00;5000458;28;47783;-57
2022/12/25 00:45:58;;;;;;;;;13.67;12.67;;;;;12.22;88.08;100781.94;5018575;28;45515;-58
2022/12/25 00:48:24;;;;;;;;;16.67;15.00;;;;;12.26;88.05;100775.50;5019332;28;45343;-57
2022/12/25 00:50:58;;;;;;;;;13.33;12.67;;;;;12.27;87.79;100782.56;5018920;28;45248;-57
2022/12/25 00:53:24;;;;;;;;;13.33;12.00;;;;;12.28;87.54;100762.06;5017960;28;45583;-58
2022/12/25 00:55:58;;;;;;;;;13.33;12.67;;;;;12.30;87.19;100761.03;5018306;28;45351;-57
2022/12/25 00:58:25;;;;;;;;;13.67;12.67;;;;;12.30;86.71;100750.38;5018858;28;45518;-59
2022/12/25 01:00:50;;;;;;;;;21.67;14.00;;;;;12.27;86.91;100747.88;5000774;28;45534;-57
2022/12/25 01:03:17;;;;;;;;;8.67;8.67;;;;;12.33;86.74;100739.50;5018134;28;45453;-57
2022/12/25 01:05:43;;;;;;;;;11.67;10.00;;;;;12.37;87.01;100740.19;5018366;28;45435;-56
2022/12/25 01:08:08;;;;;;;;;11.33;8.67;;;;;12.35;86.83;100740.25;5018369;28;45276;-58
2022/12/25 01:10:34;;;;;;;;;9.67;9.33;;;;;12.34;86.98;100745.69;5024464;28;45364;-58
2022/12/25 01:13:00;;;;;;;;;12.33;10.67;;;;;12.43;86.40;100752.28;5038245;28;46572;-57
2022/12/25 01:15:25;;;;;;;;;16.00;14.00;;;;;12.46;86.28;100744.09;5020773;28;45894;-58
2022/12/25 01:17:50;;;;;;;;;9.00;9.00;;;;;12.48;86.07;100753.69;5038346;28;45190;-57
2022/12/25 01:20:16;;;;;;;;;18.00;13.00;;;;;12.44;85.94;100751.31;5038705;28;45399;-58
2022/12/25 01:22:42;;;;;;;;;11.67;10.00;;;;;12.49;85.94;100755.41;5038695;28;47297;-58
2022/12/25 01:25:09;;;;;;;;;14.00;12.33;;;;;12.50;86.26;100750.94;5037233;28;45451;-57
2022/12/25 01:27:35;;;;;;;;;15.33;9.67;;;;;12.47;85.92;100749.31;5038023;28;45521;-57
2022/12/25 01:30:00;;;;;;;;;20.67;13.00;;;;;12.55;86.59;100759.53;5035191;28;45349;-57
2022/12/25 01:32:25;;;;;;;;;13.00;13.00;;;;;12.54;86.32;100757.81;5019898;28;46533;-57
2022/12/25 01:34:51;;;;;;;;;11.33;11.33;;;;;12.44;86.17;100756.66;5037783;28;45285;-58
2022/12/25 01:37:16;;;;;;;;;11.67;11.67;;;;;12.51;86.53;100763.34;5038138;28;45292;-57
2022/12/25 01:39:41;;;;;;;;;9.67;9.00;;;;;12.51;86.68;100779.34;5038007;28;45268;-58
2022/12/25 01:42:15;;;;;;;;;9.00;8.00;;;;;12.49;86.53;100773.22;5037317;28;62177;-57
2022/12/25 01:44:47;;;;;;;;;11.67;11.00;;;;;12.48;86.64;100768.84;5037891;28;45450;-58
2022/12/25 01:47:15;;;;;;;;;12.33;10.33;;;;;12.47;86.96;100764.47;5037944;28;45429;-58
2022/12/25 01:49:45;;;;;;;;;12.67;12.67;;;;;12.50;87.15;100772.28;5037655;28;45339;-57
2022/12/25 01:52:14;;;;;;;;;11.67;10.00;;;;;12.49;87.19;100768.75;5036786;28;45428;-58
2022/12/25 01:54:51;;;;;;;;;12.33;10.33;;;;;12.51;86.44;100763.34;5037473;28;45447;-57
2022/12/25 01:57:27;;;;;;;;;10.00;10.00;;;;;12.49;86.56;100762.56;5037534;28;45273;-58
2022/12/25 01:59:55;;;;;;;;;11.67;11.67;;;;;12.48;86.63;100763.50;5037844;28;45353;-57
2022/12/25 02:02:21;;;;;;;;;9.00;9.00;;;;;12.47;86.95;100757.31;5037335;28;45336;-57
2022/12/25 02:05:02;;;;;;;;;15.67;12.33;;;;;12.50;86.87;100766.94;5037178;28;45313;-58
2022/12/25 02:07:31;;;;;;;;;13.67;11.00;;;;;12.48;87.00;100747.50;5038075;28;45399;-58
2022/12/25 02:09:56;;;;;;;;;9.00;9.00;;;;;12.53;86.37;100745.44;5036294;28;45507;-59
2022/12/25 02:12:29;;;;;;;;;10.33;7.67;;;;;12.52;86.29;100744.59;5017137;28;45854;-58
2022/12/25 02:14:58;;;;;;;;;7.00;7.00;;;;;12.55;86.45;100748.88;4999678;28;45384;-58
2022/12/25 02:17:48;;;;;;;;;14.00;9.00;;;;;12.53;86.33;100750.78;4999587;28;45385;-58
2022/12/25 02:20:23;;;;;;;;;10.00;8.33;;;;;12.51;86.47;100752.69;5017390;28;45270;-58
2022/12/25 02:23:26;;;;;;;;;9.33;9.33;;;;;12.54;86.50;100744.47;5017017;28;45376;-57
2022/12/25 02:26:17;;;;;;;;;7.67;7.33;;;;;12.59;86.19;100734.38;5016973;28;45322;-58
2022/12/25 02:29:01;;;;;;;;;14.33;11.33;;;;;12.61;85.96;100719.13;4981262;28;45292;-58
2022/12/25 02:32:01;;;;;;;;;8.00;7.00;;;;;12.58;85.90;100744.19;5017236;28;45242;-57
2022/12/25 02:34:40;;;;;;;;;9.67;8.00;;;;;12.49;86.02;100746.56;5017178;28;45588;-57
2022/12/25 02:37:13;;;;;;;;;10.00;9.00;;;;;12.52;86.18;100739.25;5015788;28;45278;-58
2022/12/25 02:40:09;;;;;;;;;8.00;8.00;;;;;12.54;86.50;100723.13;5016836;28;45880;-57
2022/12/25 03:08:07;;;;;;;;;11.00;8.00;;;;;12.45;87.50;100724.56;5016743;28;45178;-57
2022/12/25 03:13:29;;;;;;;;;6.67;6.00;;;;;12.47;87.23;100697.78;5036434;28;45162;-57
2022/12/25 03:18:39;;;;;;;;;7.67;7.00;;;;;12.47;87.12;100695.13;5021310;28;45265;-57
2022/12/25 03:26:56;;;;;;;;;6.67;6.67;;;;;12.50;86.72;100670.91;5036387;28;45241;-57
2022/12/25 03:32:28;;;;;;;;;5.67;5.67;;;;;12.54;87.55;100693.78;5036173;28;45415;-57
2022/12/25 03:35:22;;;;;;;;;4.00;4.00;;;;;12.52;87.74;100690.38;5018246;28;45526;-57
2022/12/25 04:37:04;;;;;;;;;23.00;19.33;;;;;12.46;90.59;100621.38;5022229;28;45908;-58
2022/12/25 04:39:30;;;;;;;;;18.67;16.67;;;;;12.48;90.08;100603.47;5034518;28;46475;-58
2022/12/25 04:41:55;;;;;;;;;21.33;17.33;;;;;12.40;90.54;100593.31;5041857;28;50451;-57
2022/12/25 04:44:20;;;;;;;;;22.33;15.00;;;;;12.44;90.07;100607.28;5042134;28;45654;-58
2022/12/25 04:46:46;;;;;;;;;23.00;18.33;;;;;12.48;90.10;100607.00;5041636;28;50865;-57
2022/12/25 04:49:11;;;;;;;;;31.33;22.67;;;;;12.48;90.22;100619.47;5041788;28;45398;-58
2022/12/25 04:51:37;;;;;;;;;19.67;17.33;;;;;12.46;89.75;100616.06;5042304;28;45394;-57
2022/12/25 04:54:02;;;;;;;;;16.67;13.67;;;;;12.50;89.95;100629.13;5042013;28;45425;-57
2022/12/25 04:56:27;;;;;;;;;25.00;20.33;;;;;12.52;89.79;100631.69;5041567;28;45517;-58
2022/12/25 04:58:53;;;;;;;;;20.33;17.33;;;;;12.48;89.45;100627.47;5021280;28;45374;-57
2022/12/25 05:01:18;;;;;;;;;19.00;14.67;;;;;12.49;90.16;100623.84;5038575;28;45546;-58
2022/12/25 05:03:44;;;;;;;;;22.67;19.67;;;;;12.49;90.10;100616.69;5020798;28;45507;-58
2022/12/25 05:06:10;;;;;;;;;21.33;16.00;;;;;12.51;90.22;100605.97;5038610;28;46014;-57
2022/12/25 05:08:35;;;;;;;;;19.33;18.00;;;;;12.50;90.13;100596.22;5038383;28;45186;-58
2022/12/25 05:11:09;;;;;;;;;23.33;17.00;;;;;12.44;90.20;100559.28;5038234;28;45326;-58
2022/12/25 05:13:35;;;;;;;;;26.67;21.33;;;;;12.45;90.86;100534.31;5038757;28;45397;-58
2022/12/25 05:16:04;;;;;;;;;18.67;17.00;;;;;12.37;91.10;100513.50;5038066;28;46403;-57
2022/12/25 05:18:30;;;;;;;;;19.67;18.33;;;;;12.39;90.92;100516.91;5037880;28;45328;-56
2022/12/25 05:20:55;;;;;;;;;17.33;15.67;;;;;12.40;91.64;100546.16;5038234;28;45367;-58
2022/12/25 05:23:21;;;;;;;;;25.67;19.33;;;;;12.37;91.71;100545.50;5020591;28;45352;-57
2022/12/25 05:25:46;;;;;;;;;18.33;15.33;;;;;12.38;90.96;100548.06;5020343;28;47210;-58
2022/12/25 05:28:12;;;;;;;;;10.33;9.00;;;;;12.45;91.05;100561.00;5003552;28;45428;-59
2022/12/25 05:30:38;;;;;;;;;26.33;19.67;;;;;12.42;90.79;100562.06;5038511;28;45310;-57
2022/12/25 05:33:03;;;;;;;;;23.33;17.67;;;;;12.45;90.76;100569.00;5038698;28;45261;-57
2022/12/25 05:35:29;;;;;;;;;29.33;19.00;;;;;12.40;91.08;100562.16;5037997;28;45317;-57
2022/12/25 05:37:54;;;;;;;;;23.00;21.33;;;;;12.41;91.00;100541.69;5037848;28;45427;-56
2022/12/25 05:40:19;;;;;;;;;18.67;16.67;;;;;12.39;90.78;100551.59;5037630;28;45368;-56
2022/12/25 05:42:45;;;;;;;;;26.67;19.33;;;;;12.38;90.66;100556.06;5038099;28;45379;-58
2022/12/25 05:45:10;;;;;;;;;24.33;24.33;;;;;12.36;90.94;100565.09;5037969;28;45334;-58
2022/12/25 05:47:36;;;;;;;;;24.67;21.67;;;;;12.32;91.57;100559.13;5037551;28;45472;-57
2022/12/25 05:50:02;;;;;;;;;21.00;17.67;;;;;12.36;91.85;100557.09;5037941;28;45540;-58
2022/12/25 05:52:31;;;;;;;;;21.67;16.00;;;;;12.44;92.23;100565.47;5038025;28;45575;-58
2022/12/25 05:54:57;;;;;;;;;19.00;16.00;;;;;12.36;92.13;100549.09;5037476;28;46201;-57
2022/12/25 05:57:23;;;;;;;;;25.00;19.00;;;;;12.39;92.07;100552.44;5037280;28;45406;-57
2022/12/25 05:59:48;;;;;;;;;21.00;21.00;;;;;12.33;91.99;100539.50;5037348;28;45471;-56
2022/12/25 06:02:14;;;;;;;;;20.33;20.00;;;;;12.36;92.06;100541.94;5020006;28;45311;-57
2022/12/25 06:04:39;;;;;;;;;20.33;17.33;;;;;12.38;91.87;100547.22;5037686;28;45256;-57
2022/12/25 06:07:04;;;;;;;;;18.67;18.67;;;;;12.36;91.64;100557.94;5037600;28;45234;-57
2022/12/25 06:09:30;;;;;;;;;22.00;16.33;;;;;12.38;91.82;100555.22;5037474;28;45186;-56
2022/12/25 06:11:55;;;;;;;;;20.33;18.67;;;;;12.36;91.89;100549.09;5019289;28;45388;-57
2022/12/25 06:14:20;;;;;;;;;27.33;23.67;;;;;12.31;91.60;100538.72;5017407;28;46043;-57
2022/12/25 06:16:51;;;;;;;;;21.67;18.33;;;;;12.33;91.56;100535.97;5017317;28;45317;-57
2022/12/25 06:19:16;;;;;;;;;22.67;19.00;;;;;12.34;91.55;100527.88;5017600;28;45361;-57
2022/12/25 06:21:41;;;;;;;;;19.00;16.33;;;;;12.27;91.48;100523.91;5017616;28;45538;-57
2022/12/25 06:24:07;;;;;;;;;20.33;19.00;;;;;12.28;91.93;100512.28;5016971;28;46435;-58
2022/12/25 06:26:32;;;;;;;;;18.67;17.33;;;;;12.32;91.54;100529.78;5015998;28;45314;-57
2022/12/25 06:28:57;;;;;;;;;23.00;20.67;;;;;12.34;92.10;100535.88;4999205;28;45353;-57
2022/12/25 06:31:23;;;;;;;;;21.00;17.33;;;;;12.30;90.96;100526.34;5017499;28;45586;-59
2022/12/25 06:33:49;;;;;;;;;26.00;23.67;;;;;12.37;91.54;100518.84;5017085;28;45416;-58
2022/12/25 06:36:33;;;;;;;;;20.67;18.00;;;;;12.34;92.03;100506.53;4999459;28;45333;-59
2022/12/25 06:38:59;;;;;;;;;18.67;17.67;;;;;12.28;91.08;100493.59;5017113;28;45447;-58
2022/12/25 06:41:27;;;;;;;;;18.67;14.33;;;;;12.36;91.82;100499.28;5017189;28;45416;-58
2022/12/25 06:43:58;;;;;;;;;25.67;18.67;;;;;12.35;91.15;100489.56;5016713;28;46209;-58
2022/12/25 06:46:25;;;;;;;;;25.33;18.67;;;;;12.35;91.03;100488.72;5016617;28;45465;-57
2022/12/25 06:48:52;;;;;;;;;27.67;19.33;;;;;12.27;91.38;100475.91;5016753;28;45353;-58
2022/12/25 06:51:20;;;;;;;;;21.33;20.67;;;;;12.30;91.74;100485.50;5016825;28;45309;-58
2022/12/25 06:53:46;;;;;;;;;24.33;20.67;;;;;12.30;91.21;100505.03;5016940;28;46274;-58
2022/12/25 06:56:14;;;;;;;;;16.00;16.00;;;;;12.34;91.55;100505.69;4998639;28;45510;-58
2022/12/25 06:58:45;;;;;;;;;20.00;20.00;;;;;12.35;90.57;100518.06;5016700;28;45174;-60
2022/12/25 07:01:18;;;;;;;;;22.33;15.00;;;;;12.35;90.96;100518.91;4998265;28;45466;-58
2022/12/25 07:03:45;;;;;;;;;15.00;12.67;;;;;12.38;91.10;100525.88;5016862;28;46220;-58
2022/12/25 07:06:10;;;;;;;;;22.00;18.00;;;;;12.36;90.81;100525.94;5016713;28;45418;-57
2022/12/25 07:08:36;;;;;;;;;21.00;18.00;;;;;12.37;90.64;100527.69;5016567;28;45253;-58
2022/12/25 07:11:01;;;;;;;;;19.00;17.33;;;;;12.38;90.48;100539.22;5005570;28;45487;-58
2022/12/25 07:13:27;;;;;;;;;14.00;11.33;;;;;12.38;90.79;100531.22;5016580;28;45633;-58
2022/12/25 07:15:57;;;;;;;;;14.33;14.33;;;;;12.33;90.34;100520.81;5015145;28;45349;-58
2022/12/25 07:18:22;;;;;;;;;18.67;15.00;;;;;12.33;90.06;100510.16;5016663;28;45347;-58
2022/12/25 07:20:47;;;;;;;;;23.00;15.67;;;;;12.31;90.78;100489.88;5016966;28;45544;-58
2022/12/25 07:23:13;;;;;;;;;12.00;12.00;;;;;12.22;89.82;100469.13;5015476;28;46189;-57
2022/12/25 07:25:38;;;;;;;;;18.00;15.67;;;;;12.37;90.38;100478.84;5015955;28;56449;-58
2022/12/25 07:28:04;;;;;;;;;15.00;15.00;;;;;12.35;89.86;100464.72;5016320;28;45177;-58
2022/12/25 07:30:29;;;;;;;;;13.00;13.00;;;;;12.35;89.71;100454.03;5016483;28;45830;-56
2022/12/25 07:32:55;;;;;;;;;17.00;13.33;;;;;12.33;89.50;100456.81;5016132;28;51202;-57
2022/12/25 07:35:20;;;;;;;;;14.67;14.67;;;;;12.35;89.64;100454.03;5016124;28;45481;-57
2022/12/25 07:37:46;;;;;;;;;16.33;15.00;;;;;12.32;89.29;100439.13;5016368;28;45419;-58
2022/12/25 07:40:11;;;;;;;;;14.00;13.33;;;;;12.23;89.40;100423.72;5016174;28;45594;-58
2022/12/25 07:42:37;;;;;;;;;16.67;13.00;;;;;12.35;89.14;100435.38;5014970;28;46876;-57
2022/12/25 07:45:03;;;;;;;;;18.00;15.67;;;;;12.31;89.22;100421.41;5016068;28;45422;-57
2022/12/25 07:47:28;;;;;;;;;14.00;12.00;;;;;12.32;88.84;100414.25;5016289;28;45337;-57
2022/12/25 07:49:53;;;;;;;;;17.00;12.33;;;;;12.30;89.28;100414.38;5015961;28;45367;-58
2022/12/25 07:52:19;;;;;;;;;18.33;14.67;;;;;12.24;89.01;100414.78;5014669;28;46220;-57
2022/12/25 07:54:44;;;;;;;;;15.33;14.00;;;;;12.26;88.62;100444.84;5015368;28;63399;-57
2022/12/25 07:57:09;;;;;;;;;10.67;10.67;;;;;12.25;88.94;100451.16;5015780;28;49022;-56
2022/12/25 07:59:34;;;;;;;;;12.33;12.33;;;;;12.24;88.55;100473.44;5016257;28;45411;-57
2022/12/25 08:02:00;;;;;;;;;13.67;10.00;;;;;12.25;88.55;100476.97;5015911;28;46089;-58
2022/12/25 08:04:25;;;;;;;;;15.00;14.00;;;;;12.26;88.64;100465.34;5016065;28;45266;-58
2022/12/25 08:06:50;;;;;;;;;12.00;8.00;;;;;12.26;88.27;100474.19;5016452;28;45162;-58
2022/12/25 08:09:16;;;;;;;;;16.33;10.67;;;;;12.23;87.97;100470.84;5016041;28;45331;-58
2022/12/25 08:11:48;;;;;;;;;14.33;13.67;;;;;12.25;88.07;100477.81;5015615;28;46184;-57
2022/12/25 08:14:14;;;;;;;;;16.00;14.00;;;;;12.22;87.82;100485.13;5014845;28;45477;-58
2022/12/25 08:16:41;;;;;;;;;15.67;12.33;;;;;12.21;87.98;100489.59;5015751;28;45380;-58
2022/12/25 08:19:07;;;;;;;;;14.33;10.00;;;;;12.13;88.00;100470.59;4998117;28;45639;-58
2022/12/25 08:21:32;;;;;;;;;13.67;13.67;;;;;12.17;88.10;100474.78;5015194;28;46527;-57
2022/12/25 08:23:58;;;;;;;;;13.00;11.00;;;;;12.18;87.94;100479.16;5015523;28;45190;-57
2022/12/25 08:26:23;;;;;;;;;3.33;1.00;;;;;12.15;88.08;100466.03;5015703;28;45261;-57
2022/12/25 08:28:50;;;;;;;;;15.33;12.67;;;;;12.14;87.71;100472.31;5016135;28;45376;-57
2022/12/25 08:31:17;;;;;;;;;12.00;9.33;;;;;12.17;87.86;100458.78;5015285;28;45302;-57
2022/12/25 08:33:43;;;;;;;;;12.33;12.33;;;;;12.18;87.78;100462.31;5015846;28;45409;-58
2022/12/25 08:36:10;;;;;;;;;14.33;14.33;;;;;12.17;87.23;100453.44;5018828;28;45369;-58
2022/12/25 08:38:35;;;;;;;;;15.67;9.33;;;;;12.13;87.37;100449.28;5001431;28;45663;-57
2022/12/25 08:41:01;;;;;;;;;18.33;10.00;;;;;12.15;87.22;100458.03;5018877;28;45328;-56
2022/12/25 08:43:26;;;;;;;;;11.67;10.00;;;;;12.15;87.58;100447.38;5019185;28;45338;-59
2022/12/25 08:45:52;;;;;;;;;13.67;12.33;;;;;12.17;87.32;100442.78;5019431;28;45495;-60
2022/12/25 08:48:17;;;;;;;;;9.67;9.67;;;;;12.21;86.87;100454.94;5019340;28;45287;-58
2022/12/25 08:50:50;;;;;;;;;9.00;9.00;;;;;12.15;86.95;100452.69;5018617;28;45536;-58
2022/12/25 08:53:18;;;;;;;;;6.67;6.67;;;;;12.13;85.78;100437.75;5001098;28;45432;-58
2022/12/25 08:55:43;;;;;;;;;9.00;8.00;;;;;12.18;86.33;100440.97;5000755;28;45360;-57
2022/12/25 08:58:09;;;;;;;;;12.33;9.33;;;;;12.20;86.30;100463.06;5019249;28;45506;-58
2022/12/25 09:00:35;;;;;;;;;11.00;9.00;;;;;12.05;86.24;100446.25;5000715;28;46650;-58
2022/12/25 09:03:01;;;;;;;;;10.00;9.00;;;;;12.08;86.33;100452.22;5019106;28;45478;-58
2022/12/25 09:05:26;;;;;;;;;7.33;5.33;;;;;12.14;86.09;100453.66;5019367;28;45423;-58
2022/12/25 09:07:52;;;;;;;;;8.67;8.00;;;;;12.17;85.25;100440.13;5020297;28;45694;-57
2022/12/25 09:10:17;;;;;;;;;13.00;9.00;;;;;12.15;85.36;100447.38;5023433;28;46180;-58
2022/12/25 09:12:43;;;;;;;;;12.00;9.67;;;;;12.13;84.66;100451.09;5039142;28;45440;-59
2022/12/25 09:15:09;;;;;;;;;10.00;8.67;;;;;12.00;85.17;100443.88;5038793;28;45396;-58
2022/12/25 09:17:35;;;;;;;;;9.33;7.33;;;;;12.02;85.36;100452.63;5038634;28;45590;-58
2022/12/25 09:20:00;;;;;;;;;11.00;9.00;;;;;12.11;85.21;100464.53;5038026;28;46023;-57
2022/12/25 09:22:26;;;;;;;;;13.00;9.33;;;;;12.14;84.70;100461.66;5038145;28;45336;-57
2022/12/25 09:24:51;;;;;;;;;14.00;8.00;;;;;12.08;85.01;100448.69;5038592;28;45304;-58
2022/12/25 09:27:17;;;;;;;;;8.00;6.67;;;;;12.15;84.60;100466.03;5038507;28;45162;-58
2022/12/25 09:29:42;;;;;;;;;6.00;6.00;;;;;12.18;84.27;100478.28;5037977;28;45299;-57
2022/12/25 09:32:08;;;;;;;;;8.67;8.00;;;;;12.09;84.43;100466.41;5037822;28;45190;-58
2022/12/25 09:34:33;;;;;;;;;7.00;6.33;;;;;12.08;84.20;100468.22;5020186;28;45353;-57
2022/12/25 09:36:59;;;;;;;;;10.33;10.33;;;;;12.13;83.83;100473.28;5038193;28;45424;-57
2022/12/25 09:39:24;;;;;;;;;8.00;8.00;;;;;12.13;84.00;100469.75;5020111;28;46199;-57
2022/12/25 09:42:19;;;;;;;;;3.67;3.67;;;;;12.13;83.80;100459.94;5037909;28;45443;-58
2022/12/25 09:44:59;;;;;;;;;8.00;6.67;;;;;12.13;83.80;100454.63;5037642;28;45424;-61
2022/12/25 09:47:29;;;;;;;;;9.33;7.33;;;;;12.13;83.99;100459.94;5019936;28;45268;-58
2022/12/25 09:50:00;;;;;;;;;12.00;6.00;;;;;12.09;83.49;100443.28;5038132;28;45356;-57
2022/12/25 09:52:45;;;;;;;;;8.00;7.67;;;;;12.10;83.20;100462.78;5038297;28;45333;-58
2022/12/25 09:55:19;;;;;;;;;11.00;8.00;;;;;12.12;83.49;100466.22;5019832;28;45376;-59
2022/12/25 09:57:48;;;;;;;;;9.33;8.33;;;;;12.13;83.12;100465.28;5037681;28;45452;-58
2022/12/25 10:00:16;;;;;;;;;8.00;8.00;;;;;12.04;83.10;100457.84;5037252;28;45386;-58
2022/12/25 10:03:02;;;;;;;;;8.00;8.00;;;;;12.16;82.75;100470.41;5037629;28;45420;-59
2022/12/25 10:05:55;;;;;;;;;8.67;8.67;;;;;12.09;83.02;100447.75;5019545;28;45507;-58
2022/12/25 10:08:32;;;;;;;;;7.67;7.67;;;;;12.24;82.63;100462.78;5021863;28;45405;-58
2022/12/25 10:11:27;;;;;;;;;9.00;9.00;;;;;12.25;82.20;100452.97;5027762;28;45406;-59
2022/12/25 10:13:52;;;;;;;;;8.67;8.67;;;;;12.24;82.87;100465.44;5016463;28;45434;-57
2022/12/25 10:16:28;;;;;;;;;9.67;7.67;;;;;12.28;82.65;100458.94;5017112;28;45439;-58
2022/12/25 10:19:15;;;;;;;;;9.00;8.00;;;;;12.31;82.02;100445.41;5017839;28;45419;-59
2022/12/25 10:21:41;;;;;;;;;8.00;8.00;;;;;12.30;82.23;100435.69;5017054;28;46120;-57
2022/12/25 10:24:29;;;;;;;;;9.00;9.00;;;;;12.33;81.76;100446.16;5016874;28;45302;-58
2022/12/25 10:26:55;;;;;;;;;10.00;7.33;;;;;12.34;81.40;100455.00;5006929;28;45369;-59
2022/12/25 10:29:21;;;;;;;;;6.67;6.67;;;;;12.36;80.76;100451.28;5017336;28;45577;-57
2022/12/25 10:31:53;;;;;;;;;10.00;8.67;;;;;12.39;81.38;100455.59;5016957;28;46149;-58
2022/12/25 10:34:19;;;;;;;;;11.33;8.33;;;;;12.43;81.10;100437.56;5017108;28;45414;-58
2022/12/25 10:36:45;;;;;;;;;7.00;7.00;;;;;12.47;80.44;100436.38;5017081;28;45472;-58
2022/12/25 10:39:23;;;;;;;;;7.33;6.67;;;;;12.46;80.95;100448.00;5017035;28;45526;-57
2022/12/25 10:41:51;;;;;;;;;7.33;7.00;;;;;12.48;80.70;100454.09;5016955;28;45432;-58
2022/12/25 10:44:19;;;;;;;;;6.00;5.67;;;;;12.50;81.00;100462.84;5016904;28;45383;-58
2022/12/25 10:46:49;;;;;;;;;10.67;8.00;;;;;12.51;80.49;100449.44;5016888;28;45729;-58
2022/12/25 10:49:18;;;;;;;;;10.00;8.33;;;;;12.59;80.05;100438.25;4998879;28;45457;-58
2022/12/25 10:51:43;;;;;;;;;8.00;7.00;;;;;12.63;79.66;100426.41;5016156;28;46401;-58
2022/12/25 10:54:22;;;;;;;;;8.00;8.00;;;;;12.71;79.41;100424.06;5016601;28;45237;-57
2022/12/25 10:57:01;;;;;;;;;9.00;7.33;;;;;12.79;79.06;100437.78;5015771;28;45438;-57
2022/12/25 10:59:29;;;;;;;;;11.33;9.00;;;;;12.76;79.00;100423.75;5017199;28;45260;-56
2022/12/25 11:02:03;;;;;;;;;5.67;5.67;;;;;12.85;78.88;100436.47;5016257;28;46571;-58
2022/12/25 11:04:32;;;;;;;;;11.33;8.33;;;;;12.84;78.46;100440.13;5016749;28;45386;-56
2022/12/25 11:07:03;;;;;;;;;9.00;7.00;;;;;12.85;77.16;100449.81;5016825;28;45438;-58
2022/12/25 11:09:29;;;;;;;;;9.33;7.00;;;;;12.85;78.70;100448.00;5016978;28;45286;-58
2022/12/25 11:11:55;;;;;;;;;7.00;7.00;;;;;12.91;78.80;100452.94;5033463;28;46009;-57
2022/12/25 11:14:22;;;;;;;;;7.67;7.67;;;;;12.92;77.18;100433.31;5035595;28;45936;-58
2022/12/25 11:16:48;;;;;;;;;7.67;4.67;;;;;12.95;77.57;100422.41;5035307;28;45451;-58
2022/12/25 11:19:29;;;;;;;;;7.67;7.67;;;;;13.01;76.52;100434.47;5036667;28;45470;-58
2022/12/25 11:22:00;;;;;;;;;11.00;9.00;;;;;12.99;77.75;100431.91;5036140;28;46252;-58
2022/12/25 11:24:31;;;;;;;;;9.67;8.67;;;;;12.97;76.81;100431.16;5018128;28;45309;-58
2022/12/25 11:26:59;;;;;;;;;7.00;7.00;;;;;12.97;76.64;100436.50;5035710;28;45434;-58
2022/12/25 11:29:30;;;;;;;;;10.67;9.00;;;;;13.02;76.95;100448.66;5036364;28;45439;-57
2022/12/25 11:31:59;;;;;;;;;6.33;6.33;;;;;13.01;77.49;100469.19;5036157;28;45592;-57
2022/12/25 11:34:30;;;;;;;;;10.00;8.67;;;;;12.99;76.90;100471.09;5036057;28;45395;-58
2022/12/25 11:36:58;;;;;;;;;9.33;9.33;;;;;13.01;77.06;100469.19;5036036;28;45471;-58
2022/12/25 11:39:30;;;;;;;;;8.67;8.67;;;;;12.94;77.46;100455.41;5006667;28;45346;-57
2022/12/25 11:42:31;;;;;;;;;9.67;8.33;;;;;12.99;76.69;100465.75;5015875;28;46068;-57
2022/12/25 11:45:32;;;;;;;;;9.67;8.00;;;;;13.04;77.39;100463.66;5015954;28;45364;-62
2022/12/25 11:48:10;;;;;;;;;12.67;9.33;;;;;13.09;76.46;100471.34;4964402;28;45417;-58
2022/12/25 11:50:48;;;;;;;;;12.33;8.00;;;;;13.04;77.05;100447.63;5016028;28;45558;-58
2022/12/25 11:53:20;;;;;;;;;9.67;9.67;;;;;13.09;75.81;100456.16;5015912;28;46236;-59
2022/12/25 11:55:53;;;;;;;;;9.33;8.00;;;;;13.10;76.20;100446.34;5015741;28;45198;-58
2022/12/25 11:58:26;;;;;;;;;7.00;7.00;;;;;13.10;76.99;100435.66;5015335;28;45697;-58
2022/12/25 12:00:55;;;;;;;;;10.33;9.67;;;;;13.11;76.96;100443.56;4998155;28;45414;-57
2022/12/25 12:03:34;;;;;;;;;13.00;9.00;;;;;13.14;76.32;100432.66;5015988;28;46481;-58
2022/12/25 12:06:44;;;;;;;;;8.67;8.67;;;;;13.17;76.68;100436.97;5016940;28;45347;-58
2022/12/25 12:09:37;;;;;;;;;8.00;8.00;;;;;13.20;76.52;100436.78;4957408;28;45510;-57
2022/12/25 12:12:07;;;;;;;;;8.00;7.00;;;;;13.23;76.07;100433.88;5019893;28;45430;-58
2022/12/25 12:15:28;;;;;;;;;11.00;10.67;;;;;13.25;75.12;100423.94;5019933;28;46167;-59
2022/12/25 12:17:54;;;;;;;;;9.00;9.00;;;;;13.23;76.37;100404.50;4977812;28;45376;-57
2022/12/25 12:20:32;;;;;;;;;11.00;8.33;;;;;13.34;75.66;100409.97;5019104;28;45298;-58
2022/12/25 12:22:59;;;;;;;;;9.00;8.67;;;;;13.39;74.34;100418.50;5019271;28;45685;-59
2022/12/25 12:25:26;;;;;;;;;12.67;8.00;;;;;13.37;75.79;100412.41;5018527;28;46371;-58
2022/12/25 12:27:54;;;;;;;;;7.33;7.33;;;;;13.41;74.89;100402.34;5018520;28;45312;-58
2022/12/25 12:30:30;;;;;;;;;9.00;9.00;;;;;13.48;75.53;100393.81;5018811;28;45708;-57
2022/12/25 12:32:59;;;;;;;;;10.00;7.33;;;;;13.50;75.66;100394.53;5018970;28;45961;-59
2022/12/25 12:35:32;;;;;;;;;9.67;8.33;;;;;13.44;74.94;100375.44;5017569;28;47824;-57
2022/12/25 12:38:06;;;;;;;;;9.33;9.33;;;;;13.56;75.53;100393.28;5018979;28;45348;-58
2022/12/25 12:40:34;;;;;;;;;12.67;12.67;;;;;13.57;75.72;100403.00;4999085;28;45241;-58
2022/12/25 12:43:00;;;;;;;;;9.67;9.00;;;;;13.56;74.98;100412.81;4999056;28;45232;-58
2022/12/25 12:45:29;;;;;;;;;9.00;9.00;;;;;13.53;74.32;100420.19;4998508;28;45429;-58
2022/12/25 12:47:55;;;;;;;;;10.00;9.00;;;;;13.52;74.65;100426.50;4997826;28;45352;-58
2022/12/25 12:50:39;;;;;;;;;11.33;8.33;;;;;13.55;75.14;100410.28;4998727;28;45246;-58
2022/12/25 12:53:23;;;;;;;;;10.33;9.00;;;;;13.66;74.93;100396.13;4999281;28;45589;-58
2022/12/25 12:55:50;;;;;;;;;10.33;9.33;;;;;13.64;74.01;100388.22;4998483;28;46138;-58
2022/12/25 12:58:29;;;;;;;;;10.67;10.67;;;;;13.75;74.33;100403.47;4998573;28;45218;-57
2022/12/25 13:01:32;;;;;;;;;10.00;9.00;;;;;13.88;73.83;100396.28;4998220;28;45230;-59
2022/12/25 13:04:37;;;;;;;;;9.33;9.33;;;;;13.97;71.92;100414.34;4998775;28;45368;-57
2022/12/25 13:07:42;;;;;;;;;9.67;8.33;;;;;14.07;72.97;100407.34;4997588;28;45284;-58